createdAt,value
2019-05-03T00:02:22.721Z,13.30
2019-05-03T00:04:51.826Z,13.34
2019-05-03T00:07:18.539Z,13.25
2019-05-03T00:09:45.396Z,13.23
2019-05-03T00:12:12.756Z,13.33
2019-05-03T00:14:41.723Z,13.37
2019-05-03T00:17:08.584Z,13.43
2019-05-03T00:19:35.315Z,13.56
2019-05-03T00:22:02.301Z,13.59
2019-05-03T00:24:29.096Z,13.67
2019-05-03T00:26:55.852Z,13.68
2019-05-03T00:29:25.446Z,13.66
2019-05-03T00:31:52.172Z,13.73
2019-05-03T00:34:23.138Z,13.72
2019-05-03T00:36:53.713Z,13.71
2019-05-03T00:39:28.321Z,13.65
2019-05-03T00:41:55.191Z,13.63
2019-05-03T00:44:22.260Z,13.68
2019-05-03T00:46:49.067Z,13.78
2019-05-03T00:49:15.929Z,13.90
2019-05-03T00:51:42.608Z,13.87
2019-05-03T00:54:09.362Z,13.81
2019-05-03T00:56:36.072Z,13.73
2019-05-03T00:59:02.842Z,13.63
2019-05-03T01:01:29.587Z,13.63
2019-05-03T01:03:56.634Z,13.50
2019-05-03T01:06:23.362Z,13.45
2019-05-03T01:08:52.398Z,13.39
2019-05-03T01:11:19.400Z,13.43
2019-05-03T01:13:46.105Z,13.45
2019-05-03T01:16:15.776Z,13.45
2019-05-03T01:18:42.810Z,13.38
2019-05-03T01:21:11.587Z,13.40
2019-05-03T01:23:42.052Z,13.38
2019-05-03T01:26:08.999Z,13.42
2019-05-03T01:28:36.220Z,13.29
2019-05-03T01:31:02.976Z,13.20
2019-05-03T01:33:29.712Z,13.30
2019-05-03T01:35:58.834Z,13.33
2019-05-03T01:38:25.680Z,13.28
2019-05-03T01:40:52.396Z,13.35
2019-05-03T01:43:19.165Z,13.35
2019-05-03T01:45:45.916Z,13.34
2019-05-03T01:48:29.192Z,13.33
2019-05-03T01:51:04.897Z,13.26
2019-05-03T01:53:32.776Z,13.13
2019-05-03T01:55:59.840Z,13.24
2019-05-03T01:58:26.685Z,13.29
2019-05-03T02:01:03.590Z,13.27
2019-05-03T02:03:37.360Z,13.29
2019-05-03T02:06:04.126Z,13.21
2019-05-03T02:08:32.629Z,13.24
2019-05-03T02:10:59.648Z,13.29
2019-05-03T02:13:26.376Z,13.26
2019-05-03T02:15:53.116Z,13.16
2019-05-03T02:18:19.895Z,13.11
2019-05-03T02:20:46.610Z,13.20
2019-05-03T02:23:13.336Z,13.18
2019-05-03T02:25:41.881Z,13.22
2019-05-03T02:28:08.896Z,13.19
2019-05-03T02:30:35.621Z,13.11
2019-05-03T02:33:04.373Z,13.09
2019-05-03T02:35:33.287Z,13.16
2019-05-03T02:37:59.802Z,13.11
2019-05-03T02:40:35.577Z,13.07
2019-05-03T02:43:20.155Z,13.09
2019-05-03T02:46:00.507Z,13.05
2019-05-03T02:48:45.555Z,13.07
2019-05-03T02:51:11.529Z,13.11
2019-05-03T02:53:38.241Z,13.17
2019-05-03T02:56:15.272Z,13.14
2019-05-03T02:58:35.829Z,13.27
2019-05-03T03:01:02.864Z,13.16
2019-05-03T03:03:31.158Z,13.22
2019-05-03T03:05:59.817Z,13.03
2019-05-03T03:08:27.725Z,13.02
2019-05-03T03:11:00.589Z,12.83
2019-05-03T03:13:28.891Z,12.72
2019-05-03T03:15:55.997Z,12.76
2019-05-03T03:18:25.438Z,12.66
2019-05-03T03:20:52.143Z,12.61
2019-05-03T03:23:20.670Z,12.58
2019-05-03T03:25:47.524Z,12.56
2019-05-03T03:28:15.882Z,12.50
2019-05-03T03:31:02.667Z,12.49
2019-05-03T03:33:30.227Z,12.40
2019-05-03T03:36:01.072Z,12.34
2019-05-03T03:38:26.230Z,12.31
2019-05-03T03:40:56.467Z,12.12
2019-05-03T03:43:22.144Z,12.05
2019-05-03T03:45:49.587Z,12.07
2019-05-03T03:48:18.154Z,12.07
2019-05-03T03:50:47.963Z,12.02
2019-05-03T03:53:15.417Z,11.95
2019-05-03T03:55:45.818Z,11.87
2019-05-03T03:58:21.748Z,11.83
2019-05-03T04:00:42.804Z,11.90
2019-05-03T04:03:09.534Z,11.86
2019-05-03T04:05:36.286Z,11.78
2019-05-03T04:08:05.698Z,11.64
2019-05-03T04:10:32.347Z,11.53
2019-05-03T04:12:59.153Z,11.57
2019-05-03T04:15:45.869Z,11.53
2019-05-03T04:18:25.440Z,11.55
2019-05-03T04:20:55.974Z,11.57
2019-05-03T04:23:22.989Z,11.52
2019-05-03T04:25:49.698Z,11.55
2019-05-03T04:28:16.508Z,11.68
2019-05-03T04:30:45.782Z,11.78
2019-05-03T04:33:15.845Z,11.74
2019-05-03T04:35:41.835Z,11.68
2019-05-03T04:38:08.964Z,11.79
2019-05-03T04:40:36.123Z,11.86
2019-05-03T04:43:06.752Z,12.05
2019-05-03T04:45:36.641Z,12.18
2019-05-03T04:48:05.746Z,12.27
2019-05-03T04:50:32.213Z,11.92
2019-05-03T04:52:59.047Z,11.79
2019-05-03T04:55:26.648Z,11.72
2019-05-03T04:57:56.065Z,11.84
2019-05-03T05:00:25.360Z,11.96
2019-05-03T05:02:51.317Z,12.07
2019-05-03T05:05:18.081Z,12.10
2019-05-03T05:07:45.844Z,12.15
2019-05-03T05:10:15.356Z,12.19
2019-05-03T05:12:41.852Z,12.21
2019-05-03T05:15:08.768Z,12.10
2019-05-03T05:18:05.735Z,12.10
2019-05-03T05:20:39.357Z,12.19
2019-05-03T05:23:06.435Z,12.03
2019-05-03T05:25:41.225Z,12.14
2019-05-03T05:28:35.357Z,12.22
2019-05-03T05:31:02.009Z,12.08
2019-05-03T05:33:29.147Z,11.83
2019-05-03T05:35:56.231Z,11.70
2019-05-03T05:38:22.958Z,11.69
2019-05-03T05:40:49.719Z,11.96
2019-05-03T05:43:16.459Z,12.08
2019-05-03T05:45:44.921Z,12.16
2019-05-03T05:48:15.357Z,12.26
2019-05-03T05:50:44.902Z,12.31
2019-05-03T05:53:12.203Z,12.39
2019-05-03T05:56:07.970Z,12.48
2019-05-03T05:58:48.449Z,12.51
2019-05-03T06:01:27.736Z,12.25
2019-05-03T06:03:55.070Z,12.33
2019-05-03T06:06:32.385Z,12.32
2019-05-03T06:09:08.763Z,12.27
2019-05-03T06:11:45.114Z,12.13
2019-05-03T06:14:24.989Z,12.37
2019-05-03T06:17:07.085Z,12.18
2019-05-03T06:19:55.017Z,12.28
2019-05-03T06:22:29.460Z,12.37
2019-05-03T06:25:06.512Z,12.50
2019-05-03T06:27:37.525Z,12.66
2019-05-03T06:30:29.481Z,12.54
2019-05-03T06:32:56.205Z,12.51
2019-05-03T06:35:24.377Z,12.53
2019-05-03T06:37:51.211Z,12.54
2019-05-03T06:40:17.952Z,12.72
2019-05-03T06:42:52.348Z,12.72
2019-05-03T06:45:15.075Z,12.73
2019-05-03T06:47:46.076Z,12.89
2019-05-03T06:50:11.982Z,12.99
2019-05-03T06:52:38.717Z,13.00
2019-05-03T06:55:09.177Z,13.03
2019-05-03T06:57:40.140Z,13.00
2019-05-03T07:00:24.815Z,12.73
2019-05-03T07:03:11.362Z,12.47
2019-05-03T07:05:56.443Z,12.49
2019-05-03T07:08:44.824Z,12.47
2019-05-03T07:11:10.459Z,12.68
2019-05-03T07:13:39.025Z,12.64
2019-05-03T07:16:06.066Z,12.99
2019-05-03T07:18:35.006Z,13.02
2019-05-03T07:21:01.515Z,12.84
2019-05-03T07:23:28.521Z,12.82
2019-05-03T07:25:55.353Z,13.01
2019-05-03T07:28:22.065Z,13.15
2019-05-03T07:30:48.805Z,13.10
2019-05-03T07:33:21.929Z,13.10
2019-05-03T07:35:48.893Z,12.98
2019-05-03T07:38:15.925Z,12.95
2019-05-03T07:40:44.509Z,13.02
2019-05-03T07:43:11.657Z,13.08
2019-05-03T07:45:38.373Z,13.35
2019-05-03T07:48:05.101Z,13.61
2019-05-03T07:50:33.307Z,13.75
2019-05-03T07:53:04.650Z,13.95
2019-05-03T07:55:55.276Z,13.95
2019-05-03T07:58:22.680Z,14.02
2019-05-03T08:01:05.082Z,14.49
2019-05-03T08:03:21.820Z,14.59
2019-05-03T08:05:48.533Z,14.22
2019-05-03T08:08:15.263Z,14.34
2019-05-03T08:10:42.245Z,14.39
2019-05-03T08:13:09.073Z,14.63
2019-05-03T08:15:45.314Z,14.41
2019-05-03T08:18:15.320Z,14.13
2019-05-03T08:20:42.349Z,14.10
2019-05-03T08:23:09.079Z,14.04
2019-05-03T08:25:35.828Z,14.15
2019-05-03T08:28:02.831Z,14.25
2019-05-03T08:30:38.740Z,14.23
2019-05-03T08:33:24.992Z,14.14
2019-05-03T08:35:52.155Z,14.19
2019-05-03T08:38:18.893Z,14.30
2019-05-03T08:40:47.180Z,14.64
2019-05-03T08:43:15.562Z,14.95
2019-05-03T08:45:44.712Z,14.98
2019-05-03T08:48:11.703Z,14.67
2019-05-03T08:50:39.654Z,14.68
2019-05-03T08:53:06.395Z,14.61
2019-05-03T08:55:35.051Z,14.74
2019-05-03T08:58:01.803Z,14.59
2019-05-03T09:00:30.440Z,14.89
2019-05-03T09:02:57.568Z,14.99
2019-05-03T09:05:25.036Z,15.07
2019-05-03T09:07:54.903Z,14.98
2019-05-03T09:10:27.318Z,15.13
2019-05-03T09:13:06.219Z,15.31
2019-05-03T09:15:32.691Z,15.48
2019-05-03T09:17:59.510Z,15.32
2019-05-03T09:20:26.507Z,15.47
2019-05-03T09:22:55.070Z,15.35
2019-05-03T09:25:21.809Z,15.72
2019-05-03T09:27:48.887Z,15.68
2019-05-03T09:30:15.780Z,15.73
2019-05-03T09:32:44.820Z,15.57
2019-05-03T09:35:11.931Z,15.17
2019-05-03T09:37:38.958Z,15.33
2019-05-03T09:40:05.711Z,15.05
2019-05-03T09:42:35.283Z,15.15
2019-05-03T09:45:07.151Z,15.32
2019-05-03T09:47:35.409Z,15.49
2019-05-03T09:50:04.689Z,15.38
2019-05-03T09:52:31.185Z,15.44
2019-05-03T09:54:59.854Z,15.94
2019-05-03T09:57:26.887Z,16.11
2019-05-03T09:59:59.136Z,16.31
2019-05-03T10:02:24.660Z,16.17
2019-05-03T10:04:58.333Z,16.16
2019-05-03T10:07:25.910Z,16.23
2019-05-03T10:09:55.051Z,16.45
2019-05-03T10:12:22.835Z,16.21
2019-05-03T10:14:49.799Z,16.19
2019-05-03T10:17:51.431Z,15.99
2019-05-03T10:20:19.555Z,16.07
2019-05-03T10:22:46.367Z,16.34
2019-05-03T10:25:13.137Z,16.45
2019-05-03T10:27:46.156Z,16.39
2019-05-03T10:30:17.127Z,16.49
2019-05-03T10:32:46.882Z,16.43
2019-05-03T10:35:15.142Z,16.34
2019-05-03T10:37:42.203Z,16.49
2019-05-03T10:40:09.047Z,16.60
2019-05-03T10:42:35.891Z,16.95
2019-05-03T10:45:04.610Z,16.55
2019-05-03T10:47:31.445Z,16.59
2019-05-03T10:49:58.149Z,16.77
2019-05-03T10:52:34.884Z,16.83
2019-05-03T10:55:05.263Z,16.84
2019-05-03T10:57:35.512Z,16.83
2019-05-03T11:00:05.078Z,16.71
2019-05-03T11:02:45.336Z,16.56
2019-05-03T11:05:17.030Z,16.65
2019-05-03T11:07:45.800Z,16.71
2019-05-03T11:10:14.575Z,16.84
2019-05-03T11:12:42.984Z,16.83
2019-05-03T11:15:11.616Z,16.70
2019-05-03T11:17:38.370Z,16.72
2019-05-03T11:20:05.347Z,16.55
2019-05-03T11:22:32.058Z,16.23
2019-05-03T11:24:58.777Z,16.04
2019-05-03T11:27:38.387Z,15.96
2019-05-03T11:30:05.275Z,16.14
2019-05-03T11:32:50.091Z,16.18
2019-05-03T11:35:31.517Z,16.26
2019-05-03T11:38:17.104Z,16.29
2019-05-03T11:40:45.493Z,16.21
2019-05-03T11:43:12.577Z,16.17
2019-05-03T11:45:39.332Z,16.04
2019-05-03T11:48:06.186Z,15.91
2019-05-03T11:50:34.778Z,15.87
2019-05-03T11:53:01.710Z,16.02
2019-05-03T11:55:28.599Z,15.88
2019-05-03T11:58:00.368Z,15.85
2019-05-03T12:00:33.990Z,15.75
2019-05-03T12:03:08.070Z,15.78
2019-05-03T12:05:34.894Z,15.90
2019-05-03T12:08:01.642Z,15.74
2019-05-03T12:10:46.729Z,15.63
2019-05-03T12:13:04.904Z,15.61
2019-05-03T12:15:32.538Z,15.70
2019-05-03T12:18:03.278Z,15.92
2019-05-03T12:20:36.488Z,16.20
2019-05-03T12:23:07.945Z,15.98
2019-05-03T12:25:36.343Z,16.12
2019-05-03T12:28:11.998Z,16.17
2019-05-03T12:30:38.927Z,16.19
2019-05-03T12:33:06.133Z,16.07
2019-05-03T12:35:35.546Z,16.31
2019-05-03T12:38:01.840Z,16.29
2019-05-03T12:40:28.595Z,16.38
2019-05-03T12:42:55.534Z,16.40
2019-05-03T12:45:24.789Z,16.48
2019-05-03T12:47:52.110Z,16.45
2019-05-03T12:50:18.861Z,12.85
2019-05-03T12:52:50.428Z,16.61
2019-05-03T12:55:15.373Z,16.48
2019-05-03T12:57:42.638Z,16.22
2019-05-03T13:00:38.420Z,15.40
2019-05-03T13:03:08.561Z,14.63
2019-05-03T13:05:35.693Z,13.72
2019-05-03T13:08:32.420Z,13.82
2019-05-03T13:10:59.209Z,14.11
2019-05-03T13:13:28.401Z,14.39
2019-05-03T13:15:55.838Z,14.65
2019-05-03T13:18:22.607Z,14.84
2019-05-03T13:20:49.350Z,14.99
2019-05-03T13:23:16.092Z,15.07
2019-05-03T13:25:44.791Z,15.09
2019-05-03T13:28:11.804Z,15.41
2019-05-03T13:30:38.511Z,15.68
2019-05-03T13:33:05.913Z,15.62
2019-05-03T13:35:35.011Z,15.62
2019-05-03T13:38:01.527Z,15.61
2019-05-03T13:40:28.282Z,15.66
2019-05-03T13:43:01.731Z,15.77
2019-05-03T13:45:24.727Z,15.80
2019-05-03T13:47:51.704Z,15.83
2019-05-03T13:50:18.437Z,15.86
2019-05-03T13:52:45.555Z,15.91
2019-05-03T13:55:14.483Z,15.94
2019-05-03T13:57:40.985Z,16.00
2019-05-03T14:00:07.723Z,16.13
2019-05-03T14:02:35.992Z,16.19
2019-05-03T14:05:04.943Z,16.39
2019-05-03T14:07:31.788Z,16.53
2019-05-03T14:09:58.506Z,16.77
2019-05-03T14:12:25.250Z,16.82
2019-05-03T14:14:52.335Z,16.99
2019-05-03T14:17:22.264Z,17.03
2019-05-03T14:19:55.098Z,17.03
2019-05-03T14:22:25.676Z,17.10
2019-05-03T14:24:52.413Z,17.12
2019-05-03T14:27:19.162Z,17.13
2019-05-03T14:29:45.904Z,17.24
2019-05-03T14:32:25.937Z,17.13
2019-05-03T14:34:49.156Z,16.90
2019-05-03T14:37:15.877Z,16.74
2019-05-03T14:39:46.766Z,16.74
2019-05-03T14:42:12.661Z,16.78
2019-05-03T14:44:39.790Z,16.86
2019-05-03T14:47:06.492Z,16.92
2019-05-03T14:49:34.600Z,17.04
2019-05-03T14:52:05.544Z,17.06
2019-05-03T14:54:34.565Z,16.94
2019-05-03T14:57:30.143Z,16.69
2019-05-03T15:00:25.163Z,16.38
2019-05-03T15:03:06.195Z,16.14
2019-05-03T15:05:34.806Z,15.90
2019-05-03T15:08:02.194Z,15.38
2019-05-03T15:10:29.035Z,15.33
2019-05-03T15:12:55.758Z,15.41
2019-05-03T15:15:22.474Z,15.49
2019-05-03T15:17:49.600Z,15.56
2019-05-03T15:20:16.695Z,15.53
2019-05-03T15:22:45.279Z,15.50
2019-05-03T15:25:12.025Z,15.53
2019-05-03T15:27:38.976Z,15.55
2019-05-03T15:30:06.237Z,15.71
2019-05-03T15:32:35.219Z,15.67
2019-05-03T15:35:01.739Z,15.45
2019-05-03T15:37:29.980Z,15.22
2019-05-03T15:39:56.708Z,15.25
2019-05-03T15:42:24.752Z,15.26
2019-05-03T15:45:07.778Z,15.24
2019-05-03T15:47:42.986Z,15.39
2019-05-03T15:50:09.693Z,15.28
2019-05-03T15:52:36.590Z,15.26
2019-05-03T15:55:04.731Z,15.25
2019-05-03T15:57:31.673Z,15.35
2019-05-03T15:59:58.414Z,15.24
2019-05-03T16:02:25.182Z,15.28
2019-05-03T16:04:51.909Z,15.15
2019-05-03T16:07:18.736Z,15.17
2019-05-03T16:09:45.467Z,15.25
2019-05-03T16:12:14.800Z,15.50
2019-05-03T16:14:41.631Z,15.62
2019-05-03T16:17:08.485Z,15.54
2019-05-03T16:19:35.727Z,15.59
2019-05-03T16:22:02.480Z,15.60
2019-05-03T16:24:29.197Z,15.73
2019-05-03T16:27:24.853Z,15.78
2019-05-03T16:29:51.581Z,15.72
2019-05-03T16:32:18.291Z,15.71
2019-05-03T16:34:45.012Z,15.80
2019-05-03T16:37:11.708Z,16.04
2019-05-03T16:39:38.419Z,15.78
2019-05-03T16:42:06.921Z,15.75
2019-05-03T16:44:35.062Z,16.00
2019-05-03T16:47:02.080Z,15.99
2019-05-03T16:49:28.876Z,15.99
2019-05-03T16:51:55.719Z,15.90
2019-05-03T16:54:25.495Z,15.87
2019-05-03T16:56:52.441Z,15.82
2019-05-03T16:59:19.164Z,15.93
2019-05-03T17:01:45.889Z,15.86
2019-05-03T17:04:37.289Z,15.80
2019-05-03T17:07:30.061Z,15.72
2019-05-03T17:10:04.895Z,15.64
2019-05-03T17:12:34.794Z,15.68
2019-05-03T17:15:01.869Z,15.72
2019-05-03T17:17:28.600Z,15.86
2019-05-03T17:19:55.424Z,16.01
2019-05-03T17:22:22.152Z,16.12
2019-05-03T17:24:51.530Z,16.17
2019-05-03T17:27:17.832Z,16.24
2019-05-03T17:29:46.088Z,16.16
2019-05-03T17:32:12.909Z,15.85
2019-05-03T17:34:39.655Z,15.70
2019-05-03T17:37:06.557Z,15.75
2019-05-03T17:40:11.382Z,15.72
2019-05-03T17:43:14.648Z,15.60
2019-05-03T17:45:49.605Z,15.46
2019-05-03T17:48:16.343Z,15.54
2019-05-03T17:50:43.056Z,15.51
2019-05-03T17:53:26.536Z,15.37
2019-05-03T17:56:04.650Z,15.26
2019-05-03T17:58:44.427Z,15.19
2019-05-03T18:01:20.475Z,15.40
2019-05-03T18:03:49.272Z,15.44
2019-05-03T18:06:38.663Z,15.31
2019-05-03T18:09:15.617Z,15.21
2019-05-03T18:11:45.088Z,15.10
2019-05-03T18:14:12.083Z,14.99
2019-05-03T18:16:38.795Z,14.93
2019-05-03T18:19:05.847Z,14.94
2019-05-03T18:21:32.552Z,14.99
2019-05-03T18:23:59.715Z,14.95
2019-05-03T18:26:26.452Z,15.00
2019-05-03T18:28:54.968Z,15.02
2019-05-03T18:31:22.229Z,15.10
2019-05-03T18:33:48.957Z,15.15
2019-05-03T18:36:15.658Z,15.01
2019-05-03T18:38:44.459Z,14.89
2019-05-03T18:41:11.710Z,14.85
2019-05-03T18:44:01.209Z,14.90
2019-05-03T18:46:34.307Z,14.85
2019-05-03T18:49:01.033Z,14.85
2019-05-03T18:51:31.230Z,14.88
2019-05-03T18:53:58.051Z,14.94
2019-05-03T18:56:26.929Z,14.80
2019-05-03T18:58:55.037Z,14.81
2019-05-03T19:01:21.773Z,14.80
2019-05-03T19:03:51.433Z,14.67
2019-05-03T19:06:18.939Z,14.62
2019-05-03T19:09:05.271Z,14.56
2019-05-03T19:12:00.195Z,14.61
2019-05-03T19:14:27.603Z,14.73
2019-05-03T19:17:15.298Z,14.85
2019-05-03T19:19:44.538Z,14.79
2019-05-03T19:22:11.067Z,14.81
2019-05-03T19:24:37.793Z,14.80
2019-05-03T19:27:06.257Z,14.75
2019-05-03T19:29:34.372Z,14.79
2019-05-03T19:32:01.324Z,14.82
2019-05-03T19:34:28.026Z,14.85
2019-05-03T19:36:54.818Z,14.84
2019-05-03T19:39:21.854Z,14.88
2019-05-03T19:41:49.709Z,14.96
2019-05-03T19:44:16.707Z,14.94
2019-05-03T19:46:44.823Z,14.85
2019-05-03T19:49:11.529Z,14.87
2019-05-03T19:51:38.698Z,14.69
2019-05-03T19:54:08.537Z,14.53
2019-05-03T19:56:35.272Z,14.46
2019-05-03T19:59:06.787Z,14.44
2019-05-03T20:01:55.582Z,14.33
2019-05-03T20:04:42.222Z,14.25
2019-05-03T20:07:42.424Z,14.13
2019-05-03T20:10:09.214Z,14.06
2019-05-03T20:12:36.035Z,14.12
2019-05-03T20:15:05.176Z,14.05
2019-05-03T20:17:34.572Z,14.11
2019-05-03T20:20:01.675Z,14.03
2019-05-03T20:22:32.396Z,14.04
2019-05-03T20:25:00.505Z,13.98
2019-05-03T20:27:27.925Z,13.90
2019-05-03T20:29:55.449Z,13.91
2019-05-03T20:32:22.413Z,13.82
2019-05-03T20:34:49.132Z,13.58
2019-05-03T20:37:19.468Z,13.48
2019-05-03T20:39:47.354Z,13.48
2019-05-03T20:42:35.630Z,13.56
2019-05-03T20:45:05.216Z,13.46
2019-05-03T20:47:55.080Z,13.31
2019-05-03T20:50:21.970Z,13.33
2019-05-03T20:52:48.727Z,13.28
2019-05-03T20:55:15.727Z,13.24
2019-05-03T20:57:44.426Z,13.21
2019-05-03T21:00:14.844Z,13.25
2019-05-03T21:02:51.676Z,13.12
2019-05-03T21:05:34.477Z,13.11
2019-05-03T21:08:00.464Z,13.04
2019-05-03T21:10:27.313Z,13.08
2019-05-03T21:12:54.499Z,13.11
2019-05-03T21:15:38.602Z,12.97
2019-05-03T21:18:19.546Z,12.82
2019-05-03T21:20:58.793Z,12.92
2019-05-03T21:23:27.794Z,12.92
2019-05-03T21:26:21.796Z,12.97
2019-05-03T21:28:50.140Z,12.86
2019-05-03T21:31:20.662Z,12.75
2019-05-03T21:33:48.022Z,12.65
2019-05-03T21:36:15.266Z,12.43
2019-05-03T21:38:44.304Z,12.57
2019-05-03T21:41:11.246Z,12.58
2019-05-03T21:43:38.274Z,12.59
2019-05-03T21:46:10.443Z,12.50
2019-05-03T21:48:55.716Z,12.39
2019-05-03T21:51:24.381Z,12.45
2019-05-03T21:53:54.187Z,12.47
2019-05-03T21:56:22.153Z,12.43
2019-05-03T21:58:48.885Z,12.44
2019-05-03T22:01:15.842Z,12.44
2019-05-03T22:03:44.620Z,12.39
2019-05-03T22:06:11.260Z,12.36
2019-05-03T22:08:37.985Z,12.42
2019-05-03T22:11:05.424Z,12.41
2019-05-03T22:13:34.815Z,12.43
2019-05-03T22:16:19.977Z,12.30
2019-05-03T22:18:46.828Z,12.37
2019-05-03T22:21:31.247Z,12.44
2019-05-03T22:24:17.565Z,12.31
2019-05-03T22:26:53.131Z,12.26
2019-05-03T22:29:20.735Z,12.26
2019-05-03T22:31:47.474Z,12.28
2019-05-03T22:34:15.080Z,12.29
2019-05-03T22:36:44.894Z,12.36
2019-05-03T22:39:11.646Z,12.37
2019-05-03T22:41:38.385Z,12.32
2019-05-03T22:44:05.114Z,12.24
2019-05-03T22:46:31.856Z,12.21
2019-05-03T22:48:58.580Z,12.24
2019-05-03T22:51:25.286Z,12.28
2019-05-03T22:53:52.022Z,12.25
2019-05-03T22:56:19.103Z,12.27
2019-05-03T22:58:46.254Z,12.37
2019-05-03T23:01:16.474Z,12.33
2019-05-03T23:03:41.912Z,12.30
2019-05-03T23:06:19.498Z,12.24
2019-05-03T23:08:39.916Z,12.22
2019-05-03T23:11:09.330Z,12.17
2019-05-03T23:13:36.036Z,12.17
2019-05-03T23:16:02.797Z,12.19
2019-05-03T23:18:35.078Z,12.11
2019-05-03T23:21:08.389Z,12.05
2019-05-03T23:23:47.791Z,12.08
2019-05-03T23:26:14.865Z,12.12
2019-05-03T23:28:41.803Z,12.10
2019-05-03T23:31:08.598Z,12.17
2019-05-03T23:33:35.318Z,12.17
2019-05-03T23:36:04.411Z,12.12
2019-05-03T23:38:34.828Z,12.24
2019-05-03T23:41:04.681Z,12.18
2019-05-03T23:43:31.564Z,12.13
2019-05-03T23:45:58.322Z,12.03
2019-05-03T23:48:28.148Z,11.92
2019-05-03T23:50:55.229Z,11.98
2019-05-03T23:53:22.457Z,12.06
2019-05-03T23:55:53.982Z,12.07
2019-05-03T23:58:20.799Z,12.06
